HE14 weather

Ras Banas Airport
Red Sea Governorate, Egypt

Public forecast

Using degrees Celsius for public forecast. Weather courtesy of forecast.io.

METAR (pilot weather report)

Closest report is Marsa Alam International Airport, 106.4 nm (197.0 km) NNW. Retrieved 2019/04/22 05:00 UTC (37 minutes ago):

HEMA 220500Z 31016KT CAVOK 18/05 Q1016 NOSIG

TAF (pilot weather forecast)

Forecast is more than 12 hours old.

Closest forecast is Marsa Alam International Airport, 106.4 nm (197.0 km) NNW. Retrieved 2019/04/21 00:00 UTC (1 day ago):

TAF HEMA 212300Z 2200/2306 31012G25KT CAVOK